Aeroporto :
LOGIN :

Iscrizione | Disclaimer

   EN    FR    IT 

 










Sommario :    VFR   VFR Marginale   IFR   IFR Intensivo   IFR Molto Intensivo
Visibilità : 
Base nubi : 
>= 8 km
>= 3000ft
5 / 8 km
1000 / 3000 ft
1500m / 5 km
500 / 1000 ft
800 / 1500m
200 / 500 ft
< 800m
< 200 ft
Simboli :   Temporali  Nebbia  Neve Forte  Precipitazioni Forti  Vento > 20 kt
SIGMETs :   Varie  Temporali  Ghiacco  Turbolenza  Onda orograficha  Ceneri Vulcaniche






- Altitudine del aeroporto : 1496 ft
- Codice IATA : SBZ


LRSB - Sibiu

ULTIMO METAR :
  • 162130Z VRB01KT CAVOK 17/13 Q1014

METARs OBSOLETI :
  • 162100Z 18003KT 140V200 CAVOK 16/14 Q1014
  • 162030Z AUTO VRB01KT 9999 FEW110/// SCT120/// 16/14 Q1014
  • 162000Z 27006KT CAVOK 17/14 Q1014
  • 161930Z 25006KT CAVOK 17/14 Q1013
  • 161900Z 24003KT CAVOK 19/14 Q1013
  • 161830Z 22003KT CAVOK 20/14 Q1013
  • 161800Z 31009KT CAVOK 22/14 Q1012
  • 161730Z 30011KT CAVOK 24/13 Q1012
  • 161700Z 31010KT CAVOK 24/14 Q1012

TAF TAF LRSB
Valido dal 16 a 18 ore il 17 a 18 ore UTC


161700Z 1618/1718 VRB04KT CAVOK
PROB30
TEMPO 1623/1701 SCT050CB
TEMPO 1711/1715 32010KT



MetMap, La meteo Aeronautica in un colpo d'occhio ! - Copyright ORBIFLY Dicembre 2007 - Disclaimer

ORBIFLY MET'MAP TEAM :

Programmazione e sviluppo : Alexandra Zaïnal
Concezione : Baudouin d'Aumeries
Supporto tecnico e logistico : Manuel Goepfert
Aiuto : Marc-Olivier Méhu
Aiuto per la traduzione : Arnaldo La Scala




FONTI E CREDITI :

   NOAA